METAR Data
IDs: Format: Raw Decoded Include TAF

Data at: 0948 UTC 18 Jan 2019

PAWN 180856Z AUTO 17004KT 9SM -SN OVC022 M07/M12 A2989 RMK AO2 SNB50 SLP137 P0000 60000 T10721117 53012 FZRANO
PAWN 180756Z AUTO 00000KT 10SM OVC024 M07/M12 A2988 RMK AO2 SLP132 T10721117 410721172 FZRANO
PAWN 180656Z AUTO 19004KT 10SM OVC028 M07/M12 A2987 RMK AO2 SLP128 T10721117 FZRANO
PAWN 180635Z AUTO 20004KT 10SM BKN028 OVC036 M07/M12 A2986 RMK AO2 FZRANO
PAWN 180556Z AUTO 19003KT 10SM BKN040 OVC060 M07/M12 A2986 RMK AO2 SLP125 T10721122 11072 21106 53002 FZRANO
PAWN 180156Z AUTO 33005KT 10SM OVC065 M09/M11 A2984 RMK AO2 SLP119 T10891111 FZRANO
PAWN 180056Z AUTO 00000KT 10SM OVC070 M10/M13 A2984 RMK AO2 SLP119 T11001128 FZRANO
PAWN 172156Z AUTO 00000KT 10SM OVC080 M13/M15 A2983 RMK AO2 SLP117 T11331150 FZRANO
PAWN 171956Z AUTO 35007KT 10SM CLR M15/M17 A2982 RMK AO2 SLP114 T11501172 FZRANO
PAWN 171856Z AUTO 35004KT 10SM CLR M13/M16 A2983 RMK AO2 SLP116 T11331156 FZRANO
PAWN 171656Z AUTO 00000KT 10SM CLR M16/M18 A2983 RMK AO2 SLP116 T11561183 FZRANO
PAWN 171556Z AUTO 36004KT 10SM CLR M13/M16 A2983 RMK AO2 SLP115 T11331156 FZRANO
PAWN 171356Z AUTO 33005KT 10SM CLR M13/M14 A2983 RMK AO2 SLP116 T11281144 FZRANO
PAWN 171256Z AUTO 36006KT 10SM CLR M16/M17 A2983 RMK AO2 SLP117 T11561167 FZRANO
PAWN 171056Z AUTO 28004KT 10SM CLR M16/M18 A2984 RMK AO2 SLP121 T11561178 FZRANO
PAWN 170856Z AUTO VRB03KT 10SM CLR M14/M17 A2983 RMK AO2 SLP115 T11441167 50000 FZRANO
PAWN 170756Z AUTO 00000KT 10SM CLR M14/M16 A2983 RMK AO2 SLP116 T11391156 410831161 FZRANO
PAWN 170656Z AUTO 24003KT 10SM CLR M14/M16 A2984 RMK AO2 SLP118 T11391156 FZRANO
PAWN 170256Z AUTO 35004KT 10SM CLR M14/M16 A2986 RMK AO2 SLP126 T11441156 58009 FZRANO
PAWN 170156Z AUTO 00000KT 10SM CLR M15/M17 A2987 RMK AO2 SLP130 T11501167 FZRANO
PAWN 170120Z AUTO 00000KT 1 1/2SM BR CLR M16/M17 A2988 RMK AO2 FZRANO
PAWN 170056Z AUTO 00000KT 10SM CLR M14/M17 A2988 RMK AO2 SLP133 T11441167 FZRANO
PAWN 162356Z AUTO 35004KT 10SM CLR M14/M16 A2988 RMK AO2 SLP135 T11391161 11106 21139 58007 FZRANO
PAWN 162256Z AUTO 36004KT 10SM CLR M12/M14 A2989 RMK AO2 SLP137 T11221139 FZRANO